sensor_id;sensor_type;location;lat;lon;timestamp;P1;durP1;ratioP1;P2;durP2;ratioP2
73699;SDS011;62005;50.082;8.988;2023-08-21T00:01:40;5.18;;;2.47;;
73699;SDS011;62005;50.082;8.988;2023-08-21T00:07:15;5.53;;;2.17;;
73699;SDS011;62005;50.082;8.988;2023-08-21T00:09:40;5.60;;;2.47;;
73699;SDS011;62005;50.082;8.988;2023-08-21T00:15:13;5.38;;;2.70;;
73699;SDS011;62005;50.082;8.988;2023-08-21T00:26:04;5.60;;;2.22;;
73699;SDS011;62005;50.082;8.988;2023-08-21T00:31:32;6.38;;;2.78;;
73699;SDS011;62005;50.082;8.988;2023-08-21T00:43:14;5.90;;;2.53;;
73699;SDS011;62005;50.082;8.988;2023-08-21T00:45:40;4.50;;;2.50;;
73699;SDS011;62005;50.082;8.988;2023-08-21T00:55:59;5.53;;;2.72;;
73699;SDS011;62005;50.082;8.988;2023-08-21T00:58:25;5.20;;;2.17;;
73699;SDS011;62005;50.082;8.988;2023-08-21T01:07:03;5.80;;;2.55;;
73699;SDS011;62005;50.082;8.988;2023-08-21T01:09:36;4.57;;;2.33;;
73699;SDS011;62005;50.082;8.988;2023-08-21T01:26:32;6.18;;;2.30;;
73699;SDS011;62005;50.082;8.988;2023-08-21T01:38:14;4.97;;;2.63;;
73699;SDS011;62005;50.082;8.988;2023-08-21T01:40:39;6.67;;;2.43;;
73699;SDS011;62005;50.082;8.988;2023-08-21T01:46:14;4.53;;;2.03;;
73699;SDS011;62005;50.082;8.988;2023-08-21T01:51:58;6.20;;;2.03;;
73699;SDS011;62005;50.082;8.988;2023-08-21T01:57:43;3.83;;;2.20;;
73699;SDS011;62005;50.082;8.988;2023-08-21T02:03:40;8.85;;;2.38;;
73699;SDS011;62005;50.082;8.988;2023-08-21T02:06:09;4.60;;;1.92;;
73699;SDS011;62005;50.082;8.988;2023-08-21T02:08:34;5.68;;;2.15;;
73699;SDS011;62005;50.082;8.988;2023-08-21T02:37:02;5.68;;;2.58;;
73699;SDS011;62005;50.082;8.988;2023-08-21T02:41:53;5.75;;;2.70;;
73699;SDS011;62005;50.082;8.988;2023-08-21T02:44:18;7.63;;;2.40;;
73699;SDS011;62005;50.082;8.988;2023-08-21T02:46:46;5.10;;;2.10;;
73699;SDS011;62005;50.082;8.988;2023-08-21T02:54:30;5.78;;;2.42;;
73699;SDS011;62005;50.082;8.988;2023-08-21T02:56:55;5.70;;;2.17;;
73699;SDS011;62005;50.082;8.988;2023-08-21T03:27:03;6.35;;;2.65;;
73699;SDS011;62005;50.082;8.988;2023-08-21T03:29:33;5.57;;;2.90;;
73699;SDS011;62005;50.082;8.988;2023-08-21T03:31:59;3.97;;;2.27;;
73699;SDS011;62005;50.082;8.988;2023-08-21T03:34:24;6.63;;;2.70;;
73699;SDS011;62005;50.082;8.988;2023-08-21T03:36:55;7.73;;;2.60;;
73699;SDS011;62005;50.082;8.988;2023-08-21T03:42:23;9.70;;;2.70;;
73699;SDS011;62005;50.082;8.988;2023-08-21T03:45:06;6.37;;;2.60;;
73699;SDS011;62005;50.082;8.988;2023-08-21T03:47:32;9.45;;;2.75;;
73699;SDS011;62005;50.082;8.988;2023-08-21T03:55:00;5.65;;;2.20;;
73699;SDS011;62005;50.082;8.988;2023-08-21T03:57:25;5.00;;;2.60;;
73699;SDS011;62005;50.082;8.988;2023-08-21T04:05:35;5.65;;;2.38;;
73699;SDS011;62005;50.082;8.988;2023-08-21T04:08:00;4.63;;;2.27;;
73699;SDS011;62005;50.082;8.988;2023-08-21T04:13:52;5.00;;;2.28;;
73699;SDS011;62005;50.082;8.988;2023-08-21T04:16:18;6.73;;;2.57;;
73699;SDS011;62005;50.082;8.988;2023-08-21T04:27:33;5.65;;;2.65;;
73699;SDS011;62005;50.082;8.988;2023-08-21T04:32:33;6.10;;;2.60;;
73699;SDS011;62005;50.082;8.988;2023-08-21T04:38:01;6.85;;;2.75;;
73699;SDS011;62005;50.082;8.988;2023-08-21T04:43:05;6.45;;;2.83;;
73699;SDS011;62005;50.082;8.988;2023-08-21T04:48:33;6.72;;;3.15;;
73699;SDS011;62005;50.082;8.988;2023-08-21T04:50:58;4.30;;;2.57;;
73699;SDS011;62005;50.082;8.988;2023-08-21T04:53:23;5.22;;;2.83;;
73699;SDS011;62005;50.082;8.988;2023-08-21T04:55:49;7.77;;;3.10;;
73699;SDS011;62005;50.082;8.988;2023-08-21T04:58:14;7.93;;;3.10;;
73699;SDS011;62005;50.082;8.988;2023-08-21T05:00:39;4.88;;;2.65;;
73699;SDS011;62005;50.082;8.988;2023-08-21T05:03:07;6.70;;;3.10;;
73699;SDS011;62005;50.082;8.988;2023-08-21T05:08:36;4.93;;;2.78;;
73699;SDS011;62005;50.082;8.988;2023-08-21T05:11:02;8.60;;;3.37;;
73699;SDS011;62005;50.082;8.988;2023-08-21T05:13:27;6.50;;;3.30;;
73699;SDS011;62005;50.082;8.988;2023-08-21T05:15:53;6.57;;;2.85;;
73699;SDS011;62005;50.082;8.988;2023-08-21T05:18:19;4.90;;;2.55;;
73699;SDS011;62005;50.082;8.988;2023-08-21T05:20:44;7.27;;;2.63;;
73699;SDS011;62005;50.082;8.988;2023-08-21T05:23:09;5.73;;;2.67;;
73699;SDS011;62005;50.082;8.988;2023-08-21T05:25:35;5.17;;;2.87;;
73699;SDS011;62005;50.082;8.988;2023-08-21T05:28:00;6.90;;;3.03;;
73699;SDS011;62005;50.082;8.988;2023-08-21T05:30:26;10.48;;;2.83;;
73699;SDS011;62005;50.082;8.988;2023-08-21T05:32:52;5.50;;;2.87;;
73699;SDS011;62005;50.082;8.988;2023-08-21T05:35:17;6.00;;;3.17;;
73699;SDS011;62005;50.082;8.988;2023-08-21T05:37:42;4.77;;;2.93;;
73699;SDS011;62005;50.082;8.988;2023-08-21T05:40:07;5.17;;;3.00;;
73699;SDS011;62005;50.082;8.988;2023-08-21T05:42:33;7.13;;;2.90;;
73699;SDS011;62005;50.082;8.988;2023-08-21T05:44:58;5.63;;;2.70;;
73699;SDS011;62005;50.082;8.988;2023-08-21T05:47:23;6.23;;;3.20;;
73699;SDS011;62005;50.082;8.988;2023-08-21T05:49:49;8.23;;;3.38;;
73699;SDS011;62005;50.082;8.988;2023-08-21T05:52:15;5.50;;;2.67;;
73699;SDS011;62005;50.082;8.988;2023-08-21T05:54:40;5.60;;;3.13;;
73699;SDS011;62005;50.082;8.988;2023-08-21T05:57:05;7.30;;;2.70;;
73699;SDS011;62005;50.082;8.988;2023-08-21T05:59:30;7.83;;;2.90;;
73699;SDS011;62005;50.082;8.988;2023-08-21T06:01:56;5.35;;;2.85;;
73699;SDS011;62005;50.082;8.988;2023-08-21T06:04:21;5.67;;;2.60;;
73699;SDS011;62005;50.082;8.988;2023-08-21T06:06:46;6.90;;;2.60;;
73699;SDS011;62005;50.082;8.988;2023-08-21T06:09:12;5.17;;;2.50;;
73699;SDS011;62005;50.082;8.988;2023-08-21T06:11:37;4.73;;;2.17;;
73699;SDS011;62005;50.082;8.988;2023-08-21T06:14:03;4.28;;;2.40;;
73699;SDS011;62005;50.082;8.988;2023-08-21T06:16:29;5.93;;;2.57;;
73699;SDS011;62005;50.082;8.988;2023-08-21T06:18:54;5.07;;;1.67;;
73699;SDS011;62005;50.082;8.988;2023-08-21T06:21:19;4.80;;;2.33;;
73699;SDS011;62005;50.082;8.988;2023-08-21T06:23:44;5.23;;;2.40;;
73699;SDS011;62005;50.082;8.988;2023-08-21T06:26:09;6.40;;;2.50;;
73699;SDS011;62005;50.082;8.988;2023-08-21T06:28:35;7.17;;;2.50;;
73699;SDS011;62005;50.082;8.988;2023-08-21T06:31:00;7.47;;;2.33;;
73699;SDS011;62005;50.082;8.988;2023-08-21T06:33:28;6.80;;;1.90;;
73699;SDS011;62005;50.082;8.988;2023-08-21T06:35:53;4.00;;;2.28;;
73699;SDS011;62005;50.082;8.988;2023-08-21T06:38:19;4.00;;;2.27;;
73699;SDS011;62005;50.082;8.988;2023-08-21T06:40:44;4.40;;;2.47;;
73699;SDS011;62005;50.082;8.988;2023-08-21T06:45:35;5.45;;;2.15;;
73699;SDS011;62005;50.082;8.988;2023-08-21T06:48:00;5.40;;;2.20;;
73699;SDS011;62005;50.082;8.988;2023-08-21T06:50:27;6.32;;;2.33;;
73699;SDS011;62005;50.082;8.988;2023-08-21T06:52:52;5.47;;;2.47;;
73699;SDS011;62005;50.082;8.988;2023-08-21T06:55:17;4.53;;;2.33;;
73699;SDS011;62005;50.082;8.988;2023-08-21T06:57:42;6.13;;;2.33;;
73699;SDS011;62005;50.082;8.988;2023-08-21T07:00:08;7.27;;;2.40;;
73699;SDS011;62005;50.082;8.988;2023-08-21T07:02:33;5.05;;;2.10;;
73699;SDS011;62005;50.082;8.988;2023-08-21T07:04:59;5.63;;;2.40;;
73699;SDS011;62005;50.082;8.988;2023-08-21T07:07:24;8.30;;;2.30;;
73699;SDS011;62005;50.082;8.988;2023-08-21T07:09:49;4.90;;;2.10;;
73699;SDS011;62005;50.082;8.988;2023-08-21T07:12:15;6.90;;;2.37;;
73699;SDS011;62005;50.082;8.988;2023-08-21T07:14:40;4.80;;;2.37;;
73699;SDS011;62005;50.082;8.988;2023-08-21T07:17:05;7.87;;;3.03;;
73699;SDS011;62005;50.082;8.988;2023-08-21T07:19:30;6.00;;;2.47;;
73699;SDS011;62005;50.082;8.988;2023-08-21T07:21:55;6.37;;;2.53;;
73699;SDS011;62005;50.082;8.988;2023-08-21T07:24:21;4.40;;;2.20;;
73699;SDS011;62005;50.082;8.988;2023-08-21T07:26:46;5.40;;;2.27;;
73699;SDS011;62005;50.082;8.988;2023-08-21T07:29:11;7.03;;;2.40;;
73699;SDS011;62005;50.082;8.988;2023-08-21T07:31:36;6.27;;;3.00;;
73699;SDS011;62005;50.082;8.988;2023-08-21T07:34:02;6.33;;;2.40;;
73699;SDS011;62005;50.082;8.988;2023-08-21T07:36:27;4.57;;;2.67;;
73699;SDS011;62005;50.082;8.988;2023-08-21T07:38:52;5.07;;;2.47;;
73699;SDS011;62005;50.082;8.988;2023-08-21T07:41:17;7.17;;;2.43;;
73699;SDS011;62005;50.082;8.988;2023-08-21T07:43:43;5.37;;;2.60;;
73699;SDS011;62005;50.082;8.988;2023-08-21T07:46:10;5.15;;;2.60;;
73699;SDS011;62005;50.082;8.988;2023-08-21T07:48:38;4.35;;;2.60;;
73699;SDS011;62005;50.082;8.988;2023-08-21T07:51:03;6.85;;;2.80;;
73699;SDS011;62005;50.082;8.988;2023-08-21T07:53:29;5.80;;;3.03;;
73699;SDS011;62005;50.082;8.988;2023-08-21T07:55:56;5.05;;;2.70;;
73699;SDS011;62005;50.082;8.988;2023-08-21T07:58:21;6.23;;;2.80;;
73699;SDS011;62005;50.082;8.988;2023-08-21T08:00:46;6.57;;;3.00;;
73699;SDS011;62005;50.082;8.988;2023-08-21T08:03:13;7.57;;;3.08;;
73699;SDS011;62005;50.082;8.988;2023-08-21T08:05:39;4.80;;;2.95;;
73699;SDS011;62005;50.082;8.988;2023-08-21T08:08:04;7.28;;;3.10;;
73699;SDS011;62005;50.082;8.988;2023-08-21T08:10:30;7.13;;;3.05;;
73699;SDS011;62005;50.082;8.988;2023-08-21T08:12:55;8.07;;;3.27;;
73699;SDS011;62005;50.082;8.988;2023-08-21T08:15:21;7.53;;;3.23;;
73699;SDS011;62005;50.082;8.988;2023-08-21T08:17:46;5.30;;;3.05;;
73699;SDS011;62005;50.082;8.988;2023-08-21T08:20:12;7.27;;;3.27;;
73699;SDS011;62005;50.082;8.988;2023-08-21T08:22:37;6.18;;;3.15;;
73699;SDS011;62005;50.082;8.988;2023-08-21T08:25:03;5.80;;;2.97;;
73699;SDS011;62005;50.082;8.988;2023-08-21T08:27:29;7.90;;;3.30;;
73699;SDS011;62005;50.082;8.988;2023-08-21T08:29:54;6.60;;;3.27;;
73699;SDS011;62005;50.082;8.988;2023-08-21T08:32:19;6.67;;;3.10;;
73699;SDS011;62005;50.082;8.988;2023-08-21T08:34:45;5.47;;;3.70;;
73699;SDS011;62005;50.082;8.988;2023-08-21T08:37:11;6.25;;;2.97;;
73699;SDS011;62005;50.082;8.988;2023-08-21T08:39:37;6.50;;;3.27;;
73699;SDS011;62005;50.082;8.988;2023-08-21T08:42:05;6.30;;;3.10;;
73699;SDS011;62005;50.082;8.988;2023-08-21T08:44:30;5.90;;;3.30;;
73699;SDS011;62005;50.082;8.988;2023-08-21T08:46:59;7.00;;;3.55;;
73699;SDS011;62005;50.082;8.988;2023-08-21T08:49:25;9.07;;;3.88;;
73699;SDS011;62005;50.082;8.988;2023-08-21T08:51:51;9.88;;;3.70;;
73699;SDS011;62005;50.082;8.988;2023-08-21T08:54:17;8.40;;;3.58;;
73699;SDS011;62005;50.082;8.988;2023-08-21T08:56:43;7.50;;;4.00;;
73699;SDS011;62005;50.082;8.988;2023-08-21T08:59:08;6.40;;;3.47;;
73699;SDS011;62005;50.082;8.988;2023-08-21T09:01:34;5.90;;;3.17;;
73699;SDS011;62005;50.082;8.988;2023-08-21T09:04:00;5.47;;;3.70;;
73699;SDS011;62005;50.082;8.988;2023-08-21T09:06:25;6.47;;;3.47;;
73699;SDS011;62005;50.082;8.988;2023-08-21T09:08:54;7.18;;;3.88;;
73699;SDS011;62005;50.082;8.988;2023-08-21T09:11:20;8.07;;;4.13;;
73699;SDS011;62005;50.082;8.988;2023-08-21T09:13:45;6.13;;;3.88;;
73699;SDS011;62005;50.082;8.988;2023-08-21T09:16:11;8.65;;;4.63;;
73699;SDS011;62005;50.082;8.988;2023-08-21T09:18:36;9.38;;;4.32;;
73699;SDS011;62005;50.082;8.988;2023-08-21T09:21:02;10.38;;;3.65;;
73699;SDS011;62005;50.082;8.988;2023-08-21T09:23:27;9.03;;;3.83;;
73699;SDS011;62005;50.082;8.988;2023-08-21T09:25:53;7.55;;;3.78;;
73699;SDS011;62005;50.082;8.988;2023-08-21T09:28:19;5.47;;;3.80;;
73699;SDS011;62005;50.082;8.988;2023-08-21T09:30:46;7.20;;;3.85;;
73699;SDS011;62005;50.082;8.988;2023-08-21T09:33:12;8.55;;;3.70;;
73699;SDS011;62005;50.082;8.988;2023-08-21T09:35:37;9.13;;;3.50;;
73699;SDS011;62005;50.082;8.988;2023-08-21T09:38:02;6.33;;;3.13;;
73699;SDS011;62005;50.082;8.988;2023-08-21T09:40:28;5.03;;;3.30;;
73699;SDS011;62005;50.082;8.988;2023-08-21T09:42:53;5.20;;;2.83;;
73699;SDS011;62005;50.082;8.988;2023-08-21T09:47:44;6.05;;;3.13;;
73699;SDS011;62005;50.082;8.988;2023-08-21T09:50:10;7.77;;;3.20;;
73699;SDS011;62005;50.082;8.988;2023-08-21T09:52:35;6.30;;;3.67;;
73699;SDS011;62005;50.082;8.988;2023-08-21T09:55:00;10.60;;;3.70;;
73699;SDS011;62005;50.082;8.988;2023-08-21T09:57:28;8.73;;;3.65;;
73699;SDS011;62005;50.082;8.988;2023-08-21T09:59:53;7.38;;;3.17;;
73699;SDS011;62005;50.082;8.988;2023-08-21T10:02:20;6.53;;;3.40;;
73699;SDS011;62005;50.082;8.988;2023-08-21T10:04:45;6.05;;;3.50;;
73699;SDS011;62005;50.082;8.988;2023-08-21T10:07:13;5.30;;;2.92;;
73699;SDS011;62005;50.082;8.988;2023-08-21T10:09:41;6.18;;;3.25;;
73699;SDS011;62005;50.082;8.988;2023-08-21T10:12:08;4.93;;;2.63;;
73699;SDS011;62005;50.082;8.988;2023-08-21T10:14:34;4.72;;;2.63;;
73699;SDS011;62005;50.082;8.988;2023-08-21T10:17:00;5.50;;;2.75;;
73699;SDS011;62005;50.082;8.988;2023-08-21T10:19:30;7.17;;;3.00;;
73699;SDS011;62005;50.082;8.988;2023-08-21T10:22:00;4.68;;;2.70;;
73699;SDS011;62005;50.082;8.988;2023-08-21T10:27:49;4.35;;;2.40;;
73699;SDS011;62005;50.082;8.988;2023-08-21T10:30:14;9.95;;;3.00;;
73699;SDS011;62005;50.082;8.988;2023-08-21T10:32:44;5.18;;;2.10;;
73699;SDS011;62005;50.082;8.988;2023-08-21T10:35:13;6.93;;;2.00;;
73699;SDS011;62005;50.082;8.988;2023-08-21T10:38:04;6.22;;;1.80;;
73699;SDS011;62005;50.082;8.988;2023-08-21T10:40:24;3.75;;;1.60;;
73699;SDS011;62005;50.082;8.988;2023-08-21T10:42:49;3.53;;;1.27;;
73699;SDS011;62005;50.082;8.988;2023-08-21T10:45:14;6.20;;;1.93;;
73699;SDS011;62005;50.082;8.988;2023-08-21T10:47:40;4.33;;;1.60;;
73699;SDS011;62005;50.082;8.988;2023-08-21T10:50:06;4.00;;;1.37;;
73699;SDS011;62005;50.082;8.988;2023-08-21T10:52:38;6.05;;;1.80;;
73699;SDS011;62005;50.082;8.988;2023-08-21T10:55:09;3.75;;;1.23;;
73699;SDS011;62005;50.082;8.988;2023-08-21T10:57:35;4.40;;;1.20;;
73699;SDS011;62005;50.082;8.988;2023-08-21T11:02:29;4.40;;;1.20;;
73699;SDS011;62005;50.082;8.988;2023-08-21T11:04:55;3.70;;;1.23;;
73699;SDS011;62005;50.082;8.988;2023-08-21T11:07:20;4.07;;;1.08;;
73699;SDS011;62005;50.082;8.988;2023-08-21T11:09:46;2.67;;;0.90;;
73699;SDS011;62005;50.082;8.988;2023-08-21T11:14:37;3.63;;;1.00;;
73699;SDS011;62005;50.082;8.988;2023-08-21T11:17:03;5.43;;;0.90;;
73699;SDS011;62005;50.082;8.988;2023-08-21T11:19:31;5.78;;;0.98;;
73699;SDS011;62005;50.082;8.988;2023-08-21T11:21:57;2.60;;;0.90;;
73699;SDS011;62005;50.082;8.988;2023-08-21T11:24:29;2.17;;;0.70;;
73699;SDS011;62005;50.082;8.988;2023-08-21T11:26:54;2.60;;;1.15;;
73699;SDS011;62005;50.082;8.988;2023-08-21T11:29:19;3.20;;;0.90;;
73699;SDS011;62005;50.082;8.988;2023-08-21T11:31:45;2.85;;;0.80;;
73699;SDS011;62005;50.082;8.988;2023-08-21T11:34:17;2.50;;;1.08;;
73699;SDS011;62005;50.082;8.988;2023-08-21T11:36:43;2.35;;;0.50;;
73699;SDS011;62005;50.082;8.988;2023-08-21T11:39:08;1.43;;;0.30;;
73699;SDS011;62005;50.082;8.988;2023-08-21T11:41:52;1.85;;;0.35;;
73699;SDS011;62005;50.082;8.988;2023-08-21T11:44:17;1.80;;;0.30;;
73699;SDS011;62005;50.082;8.988;2023-08-21T11:46:42;2.00;;;0.20;;
73699;SDS011;62005;50.082;8.988;2023-08-21T11:49:07;2.67;;;0.27;;
73699;SDS011;62005;50.082;8.988;2023-08-21T11:51:37;1.58;;;0.40;;
73699;SDS011;62005;50.082;8.988;2023-08-21T11:54:03;3.95;;;0.40;;
73699;SDS011;62005;50.082;8.988;2023-08-21T11:56:29;1.42;;;0.52;;
73699;SDS011;62005;50.082;8.988;2023-08-21T11:58:54;2.13;;;0.40;;
73699;SDS011;62005;50.082;8.988;2023-08-21T12:01:19;2.07;;;0.50;;
73699;SDS011;62005;50.082;8.988;2023-08-21T12:03:45;2.08;;;0.80;;
73699;SDS011;62005;50.082;8.988;2023-08-21T12:06:11;1.90;;;0.57;;
73699;SDS011;62005;50.082;8.988;2023-08-21T12:08:37;2.03;;;0.88;;
73699;SDS011;62005;50.082;8.988;2023-08-21T12:11:04;2.65;;;0.50;;
73699;SDS011;62005;50.082;8.988;2023-08-21T12:13:32;2.20;;;0.50;;
73699;SDS011;62005;50.082;8.988;2023-08-21T12:16:00;1.77;;;0.40;;
73699;SDS011;62005;50.082;8.988;2023-08-21T12:18:25;2.22;;;0.70;;
73699;SDS011;62005;50.082;8.988;2023-08-21T12:20:50;4.97;;;0.73;;
73699;SDS011;62005;50.082;8.988;2023-08-21T12:23:16;2.67;;;0.60;;
73699;SDS011;62005;50.082;8.988;2023-08-21T12:25:41;4.80;;;0.80;;
73699;SDS011;62005;50.082;8.988;2023-08-21T12:30:32;2.85;;;0.70;;
73699;SDS011;62005;50.082;8.988;2023-08-21T12:32:57;2.77;;;0.60;;
73699;SDS011;62005;50.082;8.988;2023-08-21T12:35:22;4.47;;;0.63;;
73699;SDS011;62005;50.082;8.988;2023-08-21T12:37:47;3.73;;;0.70;;
73699;SDS011;62005;50.082;8.988;2023-08-21T12:40:13;4.13;;;0.50;;
73699;SDS011;62005;50.082;8.988;2023-08-21T12:42:38;3.17;;;0.60;;
73699;SDS011;62005;50.082;8.988;2023-08-21T12:45:03;3.40;;;0.70;;
73699;SDS011;62005;50.082;8.988;2023-08-21T12:47:29;6.35;;;0.90;;
73699;SDS011;62005;50.082;8.988;2023-08-21T12:49:54;3.03;;;0.50;;
73699;SDS011;62005;50.082;8.988;2023-08-21T12:52:19;2.17;;;0.60;;
73699;SDS011;62005;50.082;8.988;2023-08-21T12:54:44;2.17;;;0.50;;
73699;SDS011;62005;50.082;8.988;2023-08-21T12:57:09;2.17;;;0.70;;
73699;SDS011;62005;50.082;8.988;2023-08-21T12:59:36;3.35;;;0.55;;
73699;SDS011;62005;50.082;8.988;2023-08-21T13:02:01;2.50;;;0.67;;
73699;SDS011;62005;50.082;8.988;2023-08-21T13:04:27;3.20;;;0.50;;
73699;SDS011;62005;50.082;8.988;2023-08-21T13:06:52;2.93;;;0.90;;
73699;SDS011;62005;50.082;8.988;2023-08-21T13:09:20;2.00;;;0.40;;
73699;SDS011;62005;50.082;8.988;2023-08-21T13:11:48;1.35;;;0.50;;
73699;SDS011;62005;50.082;8.988;2023-08-21T13:14:13;3.20;;;0.52;;
73699;SDS011;62005;50.082;8.988;2023-08-21T13:16:39;3.27;;;0.90;;
73699;SDS011;62005;50.082;8.988;2023-08-21T13:19:04;1.50;;;0.70;;
73699;SDS011;62005;50.082;8.988;2023-08-21T13:21:29;2.00;;;0.70;;
73699;SDS011;62005;50.082;8.988;2023-08-21T13:23:55;3.72;;;0.60;;
73699;SDS011;62005;50.082;8.988;2023-08-21T13:26:20;2.43;;;0.60;;
73699;SDS011;62005;50.082;8.988;2023-08-21T13:28:45;2.40;;;0.67;;
73699;SDS011;62005;50.082;8.988;2023-08-21T13:31:10;1.60;;;0.50;;
73699;SDS011;62005;50.082;8.988;2023-08-21T13:36:02;2.63;;;0.47;;
73699;SDS011;62005;50.082;8.988;2023-08-21T13:38:27;2.17;;;0.80;;
73699;SDS011;62005;50.082;8.988;2023-08-21T13:40:52;2.40;;;0.43;;
73699;SDS011;62005;50.082;8.988;2023-08-21T13:43:17;2.73;;;0.70;;
73699;SDS011;62005;50.082;8.988;2023-08-21T13:45:42;3.20;;;0.60;;
73699;SDS011;62005;50.082;8.988;2023-08-21T13:48:08;2.63;;;0.60;;
73699;SDS011;62005;50.082;8.988;2023-08-21T13:50:33;2.20;;;0.90;;
73699;SDS011;62005;50.082;8.988;2023-08-21T13:52:59;2.70;;;0.50;;
73699;SDS011;62005;50.082;8.988;2023-08-21T13:55:24;1.88;;;0.60;;
73699;SDS011;62005;50.082;8.988;2023-08-21T13:57:50;3.23;;;0.70;;
73699;SDS011;62005;50.082;8.988;2023-08-21T14:00:15;2.47;;;0.50;;
73699;SDS011;62005;50.082;8.988;2023-08-21T14:02:42;1.95;;;0.57;;
73699;SDS011;62005;50.082;8.988;2023-08-21T14:05:08;2.33;;;0.40;;
73699;SDS011;62005;50.082;8.988;2023-08-21T14:07:34;1.88;;;0.50;;
73699;SDS011;62005;50.082;8.988;2023-08-21T14:10:00;1.92;;;0.40;;
73699;SDS011;62005;50.082;8.988;2023-08-21T14:12:27;3.00;;;0.60;;
73699;SDS011;62005;50.082;8.988;2023-08-21T14:14:52;1.70;;;0.50;;
73699;SDS011;62005;50.082;8.988;2023-08-21T14:17:17;1.67;;;0.43;;
73699;SDS011;62005;50.082;8.988;2023-08-21T14:19:42;3.03;;;0.43;;
73699;SDS011;62005;50.082;8.988;2023-08-21T14:22:08;3.53;;;0.60;;
73699;SDS011;62005;50.082;8.988;2023-08-21T14:24:33;1.53;;;0.47;;
73699;SDS011;62005;50.082;8.988;2023-08-21T14:26:58;2.10;;;0.60;;
73699;SDS011;62005;50.082;8.988;2023-08-21T14:29:23;1.63;;;0.40;;
73699;SDS011;62005;50.082;8.988;2023-08-21T14:31:48;1.73;;;0.47;;
73699;SDS011;62005;50.082;8.988;2023-08-21T14:34:14;2.03;;;0.50;;
73699;SDS011;62005;50.082;8.988;2023-08-21T14:36:40;5.18;;;0.63;;
73699;SDS011;62005;50.082;8.988;2023-08-21T14:39:06;1.65;;;0.40;;
73699;SDS011;62005;50.082;8.988;2023-08-21T14:41:31;3.17;;;0.43;;
73699;SDS011;62005;50.082;8.988;2023-08-21T14:43:56;1.93;;;0.40;;
73699;SDS011;62005;50.082;8.988;2023-08-21T14:46:21;1.57;;;0.53;;
73699;SDS011;62005;50.082;8.988;2023-08-21T14:48:47;1.60;;;0.50;;
73699;SDS011;62005;50.082;8.988;2023-08-21T14:51:12;2.80;;;0.47;;
73699;SDS011;62005;50.082;8.988;2023-08-21T14:53:37;4.63;;;1.23;;
73699;SDS011;62005;50.082;8.988;2023-08-21T14:56:02;3.33;;;0.57;;
73699;SDS011;62005;50.082;8.988;2023-08-21T14:58:28;1.50;;;0.43;;
73699;SDS011;62005;50.082;8.988;2023-08-21T15:00:54;2.47;;;0.53;;
73699;SDS011;62005;50.082;8.988;2023-08-21T15:03:19;1.60;;;0.40;;
73699;SDS011;62005;50.082;8.988;2023-08-21T15:05:44;4.10;;;0.80;;
73699;SDS011;62005;50.082;8.988;2023-08-21T15:08:10;2.20;;;0.32;;
73699;SDS011;62005;50.082;8.988;2023-08-21T15:10:35;1.40;;;0.40;;
73699;SDS011;62005;50.082;8.988;2023-08-21T15:13:00;2.00;;;0.40;;
73699;SDS011;62005;50.082;8.988;2023-08-21T15:15:26;2.50;;;0.43;;
73699;SDS011;62005;50.082;8.988;2023-08-21T15:17:54;5.57;;;0.35;;
73699;SDS011;62005;50.082;8.988;2023-08-21T15:20:22;6.15;;;0.50;;
73699;SDS011;62005;50.082;8.988;2023-08-21T15:22:48;3.15;;;0.60;;
73699;SDS011;62005;50.082;8.988;2023-08-21T15:25:15;2.10;;;0.60;;
73699;SDS011;62005;50.082;8.988;2023-08-21T15:27:44;2.78;;;0.47;;
73699;SDS011;62005;50.082;8.988;2023-08-21T15:30:10;2.10;;;0.40;;
73699;SDS011;62005;50.082;8.988;2023-08-21T15:32:35;1.80;;;0.38;;
73699;SDS011;62005;50.082;8.988;2023-08-21T15:35:00;1.53;;;0.40;;
73699;SDS011;62005;50.082;8.988;2023-08-21T15:37:29;1.77;;;0.40;;
73699;SDS011;62005;50.082;8.988;2023-08-21T15:39:55;1.90;;;0.33;;
73699;SDS011;62005;50.082;8.988;2023-08-21T15:42:20;4.00;;;0.43;;
73699;SDS011;62005;50.082;8.988;2023-08-21T15:44:47;1.47;;;0.33;;
73699;SDS011;62005;50.082;8.988;2023-08-21T15:47:13;1.60;;;0.32;;
73699;SDS011;62005;50.082;8.988;2023-08-21T15:49:38;2.53;;;0.50;;
73699;SDS011;62005;50.082;8.988;2023-08-21T15:52:03;1.27;;;0.30;;
73699;SDS011;62005;50.082;8.988;2023-08-21T15:54:29;2.97;;;0.60;;
73699;SDS011;62005;50.082;8.988;2023-08-21T15:56:55;4.00;;;0.40;;
73699;SDS011;62005;50.082;8.988;2023-08-21T15:59:20;2.73;;;0.50;;
73699;SDS011;62005;50.082;8.988;2023-08-21T16:01:45;1.37;;;0.40;;
73699;SDS011;62005;50.082;8.988;2023-08-21T16:04:10;3.37;;;0.40;;
73699;SDS011;62005;50.082;8.988;2023-08-21T16:06:36;1.63;;;0.50;;
73699;SDS011;62005;50.082;8.988;2023-08-21T16:09:01;2.90;;;0.20;;
73699;SDS011;62005;50.082;8.988;2023-08-21T16:11:26;1.97;;;0.33;;
73699;SDS011;62005;50.082;8.988;2023-08-21T16:13:51;2.13;;;0.30;;
73699;SDS011;62005;50.082;8.988;2023-08-21T16:16:16;1.73;;;0.20;;
73699;SDS011;62005;50.082;8.988;2023-08-21T16:18:42;1.17;;;0.20;;
73699;SDS011;62005;50.082;8.988;2023-08-21T16:21:07;0.93;;;0.20;;
73699;SDS011;62005;50.082;8.988;2023-08-21T16:23:32;2.80;;;0.20;;
73699;SDS011;62005;50.082;8.988;2023-08-21T16:25:58;3.90;;;0.40;;
73699;SDS011;62005;50.082;8.988;2023-08-21T16:28:23;2.67;;;0.30;;
73699;SDS011;62005;50.082;8.988;2023-08-21T16:30:48;3.70;;;0.37;;
73699;SDS011;62005;50.082;8.988;2023-08-21T16:33:13;0.80;;;0.20;;
73699;SDS011;62005;50.082;8.988;2023-08-21T16:35:39;3.50;;;0.30;;
73699;SDS011;62005;50.082;8.988;2023-08-21T16:38:04;1.33;;;0.20;;
73699;SDS011;62005;50.082;8.988;2023-08-21T16:40:29;1.37;;;0.20;;
73699;SDS011;62005;50.082;8.988;2023-08-21T16:42:54;2.03;;;0.20;;
73699;SDS011;62005;50.082;8.988;2023-08-21T16:45:20;2.10;;;0.50;;
73699;SDS011;62005;50.082;8.988;2023-08-21T16:47:45;1.30;;;0.20;;
73699;SDS011;62005;50.082;8.988;2023-08-21T16:50:11;3.08;;;0.30;;
73699;SDS011;62005;50.082;8.988;2023-08-21T16:52:36;1.30;;;0.20;;
73699;SDS011;62005;50.082;8.988;2023-08-21T16:55:02;1.65;;;0.40;;
73699;SDS011;62005;50.082;8.988;2023-08-21T16:57:28;2.05;;;0.20;;
73699;SDS011;62005;50.082;8.988;2023-08-21T16:59:53;3.13;;;0.30;;
73699;SDS011;62005;50.082;8.988;2023-08-21T17:02:18;3.63;;;0.50;;
73699;SDS011;62005;50.082;8.988;2023-08-21T17:04:46;1.92;;;0.32;;
73699;SDS011;62005;50.082;8.988;2023-08-21T17:07:14;1.95;;;0.25;;
73699;SDS011;62005;50.082;8.988;2023-08-21T17:09:43;1.52;;;0.13;;
73699;SDS011;62005;50.082;8.988;2023-08-21T17:12:08;1.95;;;0.20;;
73699;SDS011;62005;50.082;8.988;2023-08-21T17:14:34;0.77;;;0.10;;
73699;SDS011;62005;50.082;8.988;2023-08-21T17:16:59;1.77;;;0.27;;
73699;SDS011;62005;50.082;8.988;2023-08-21T17:22:13;1.08;;;0.30;;
73699;SDS011;62005;50.082;8.988;2023-08-21T17:24:38;0.98;;;0.10;;
73699;SDS011;62005;50.082;8.988;2023-08-21T17:27:03;0.80;;;0.10;;
73699;SDS011;62005;50.082;8.988;2023-08-21T17:29:29;1.53;;;0.20;;
73699;SDS011;62005;50.082;8.988;2023-08-21T17:31:54;0.93;;;0.20;;
73699;SDS011;62005;50.082;8.988;2023-08-21T17:34:19;1.20;;;0.20;;
73699;SDS011;62005;50.082;8.988;2023-08-21T17:39:20;0.70;;;0.10;;
73699;SDS011;62005;50.082;8.988;2023-08-21T17:41:48;1.77;;;0.20;;
73699;SDS011;62005;50.082;8.988;2023-08-21T17:44:14;1.73;;;0.28;;
73699;SDS011;62005;50.082;8.988;2023-08-21T17:46:39;2.20;;;0.40;;
73699;SDS011;62005;50.082;8.988;2023-08-21T17:49:05;2.65;;;0.30;;
73699;SDS011;62005;50.082;8.988;2023-08-21T17:51:40;2.55;;;0.30;;
73699;SDS011;62005;50.082;8.988;2023-08-21T17:54:09;1.88;;;0.30;;
73699;SDS011;62005;50.082;8.988;2023-08-21T17:56:34;2.90;;;0.60;;
73699;SDS011;62005;50.082;8.988;2023-08-21T17:58:59;2.50;;;0.40;;
73699;SDS011;62005;50.082;8.988;2023-08-21T18:04:18;1.75;;;0.40;;
73699;SDS011;62005;50.082;8.988;2023-08-21T18:06:43;1.13;;;0.33;;